CPA111 VHHH-YSSY
Flight info
| Callsign | CPA111 |
|---|---|
| Flight time | N/A |
| Altitude | 38000 |
| Route | DALOL V652 SABNO/N0494F370 A583 IBOBI/N0489F390 A583 ZAM A461 BUTPA DCT VEGPU/N0483F410 DCT RUKSI DCT YUSEF DCT NOLES DCT 26S138E DCT OOM DCT APOMA Y52 VELGI Y105 TARAL Y59 TESAT |
| Aircraft | A359/H-SDE2E3GHIJ3J4J5LM1ORWXY/LB1D1 |
Departure
| Time | 2026-05-04 11:28 |
|---|---|
| Airport | Hong Kong International Airport (VHHH) |
Arrival
| Time | N/A |
|---|---|
| Airport | Sydney Kingsford Smith International Airport (YSSY) |
| Time | Latitude | Longitude | Altitude | Speed | Heading |
|---|---|---|---|---|---|
| 2026-05-04 10:32 | 22.31296 | 113.92976 | 38 ft | 0 kts | 341° |
| 2026-05-04 11:13 | 22.31283 | 113.92981 | 37 ft | 2 kts | 335° |
| 2026-05-04 11:13 | 22.31269 | 113.92989 | 37 ft | 2 kts | 330° |
| 2026-05-04 11:14 | 22.31255 | 113.92998 | 37 ft | 2 kts | 320° |
| 2026-05-04 11:14 | 22.31243 | 113.93011 | 34 ft | 2 kts | 308° |
| 2026-05-04 11:14 | 22.31235 | 113.93025 | 35 ft | 2 kts | 295° |
| 2026-05-04 11:16 | 22.31234 | 113.93079 | 35 ft | 0 kts | 251° |
| 2026-05-04 11:20 | 22.31233 | 113.93078 | 35 ft | 2 kts | 251° |
| 2026-05-04 11:20 | 22.31223 | 113.93043 | 35 ft | 8 kts | 251° |
| 2026-05-04 11:20 | 22.31198 | 113.92962 | 38 ft | 16 kts | 251° |
| 2026-05-04 11:20 | 22.31115 | 113.92865 | 38 ft | 21 kts | 206° |
| 2026-05-04 11:22 | 22.30577 | 113.91905 | 38 ft | 45 kts | 250° |
| 2026-05-04 11:22 | 22.30470 | 113.91568 | 38 ft | 51 kts | 251° |
| 2026-05-04 11:23 | 22.30366 | 113.91252 | 38 ft | 26 kts | 251° |
| 2026-05-04 11:23 | 22.30308 | 113.91073 | 38 ft | 26 kts | 250° |
| 2026-05-04 11:24 | 22.29953 | 113.89972 | 38 ft | 24 kts | 252° |
| 2026-05-04 11:25 | 22.29907 | 113.89823 | 38 ft | 15 kts | 251° |
| 2026-05-04 11:25 | 22.29847 | 113.89740 | 38 ft | 15 kts | 196° |
| 2026-05-04 11:25 | 22.29707 | 113.89776 | 38 ft | 22 kts | 159° |
| 2026-05-04 11:26 | 22.29670 | 113.89959 | 36 ft | 0 kts | 72° |
| 2026-05-04 11:27 | 22.30076 | 113.91210 | 38 ft | 141 kts | 71° |
| 2026-05-04 11:28 | 22.30432 | 113.92355 | 207 ft | 170 kts | 73° |
| 2026-05-04 11:28 | 22.30769 | 113.93450 | 979 ft | 156 kts | 71° |
| 2026-05-04 11:28 | 22.31148 | 113.94605 | 1374 ft | 170 kts | 72° |
| 2026-05-04 11:28 | 22.31556 | 113.95846 | 1580 ft | 186 kts | 71° |
| 2026-05-04 11:29 | 22.32003 | 113.97218 | 1789 ft | 202 kts | 72° |
| 2026-05-04 11:29 | 22.32462 | 113.98635 | 2285 ft | 203 kts | 72° |
| 2026-05-04 11:29 | 22.32933 | 114.00086 | 2749 ft | 208 kts | 73° |
| 2026-05-04 11:29 | 22.33398 | 114.01534 | 3184 ft | 212 kts | 72° |
| 2026-05-04 11:31 | 22.27288 | 114.08779 | 5881 ft | 253 kts | 184° |
| 2026-05-04 11:33 | 22.14697 | 114.11400 | 8995 ft | 303 kts | 122° |
| 2026-05-04 11:33 | 22.13716 | 114.13434 | 9500 ft | 308 kts | 119° |
| 2026-05-04 11:33 | 22.12759 | 114.15513 | 9959 ft | 312 kts | 119° |
| 2026-05-04 11:34 | 22.11772 | 114.17630 | 10262 ft | 321 kts | 120° |
| 2026-05-04 11:34 | 22.10661 | 114.19765 | 10452 ft | 333 kts | 123° |
| 2026-05-04 11:34 | 22.09458 | 114.21963 | 10648 ft | 345 kts | 123° |
| 2026-05-04 11:34 | 22.08209 | 114.24228 | 10841 ft | 357 kts | 123° |
| 2026-05-04 11:35 | 22.06913 | 114.26566 | 11023 ft | 368 kts | 123° |
| 2026-05-04 11:35 | 22.05574 | 114.28971 | 11204 ft | 379 kts | 123° |
| 2026-05-04 11:35 | 22.04198 | 114.31439 | 11354 ft | 389 kts | 124° |
| 2026-05-04 11:35 | 22.02790 | 114.33961 | 11583 ft | 396 kts | 124° |
| 2026-05-04 11:36 | 22.01371 | 114.36502 | 11914 ft | 399 kts | 124° |
| 2026-05-04 11:36 | 21.99957 | 114.39032 | 12259 ft | 402 kts | 124° |
| 2026-05-04 11:36 | 21.98511 | 114.41618 | 12683 ft | 402 kts | 124° |
| 2026-05-04 11:36 | 21.97063 | 114.44204 | 13052 ft | 404 kts | 124° |
| 2026-05-04 11:37 | 21.95607 | 114.46803 | 13386 ft | 407 kts | 124° |
| 2026-05-04 11:37 | 21.94139 | 114.49420 | 13706 ft | 409 kts | 124° |
| 2026-05-04 11:37 | 21.92681 | 114.52019 | 14033 ft | 411 kts | 124° |
| 2026-05-04 11:37 | 21.91271 | 114.54532 | 14322 ft | 413 kts | 124° |
| 2026-05-04 11:38 | 21.89825 | 114.57108 | 14620 ft | 415 kts | 124° |
| 2026-05-04 11:38 | 21.88353 | 114.59729 | 14916 ft | 417 kts | 124° |
| 2026-05-04 11:38 | 21.86844 | 114.62414 | 15227 ft | 420 kts | 124° |
| 2026-05-04 11:38 | 21.85332 | 114.65103 | 15533 ft | 422 kts | 124° |
| 2026-05-04 11:39 | 21.83811 | 114.67806 | 15818 ft | 425 kts | 124° |
| 2026-05-04 11:39 | 21.82290 | 114.70509 | 16107 ft | 427 kts | 124° |
| 2026-05-04 11:40 | 21.72736 | 114.87031 | 17880 ft | 439 kts | 129° |
| 2026-05-04 11:41 | 21.70908 | 114.89668 | 18169 ft | 440 kts | 130° |
| 2026-05-04 11:41 | 21.69030 | 114.92285 | 18425 ft | 443 kts | 131° |
| 2026-05-04 11:41 | 21.67146 | 114.94883 | 18664 ft | 445 kts | 131° |
| 2026-05-04 11:41 | 21.65257 | 114.97494 | 18922 ft | 446 kts | 131° |
| 2026-05-04 11:42 | 21.63359 | 115.00135 | 19157 ft | 448 kts | 130° |
| 2026-05-04 11:42 | 21.61458 | 115.02804 | 19371 ft | 450 kts | 131° |
| 2026-05-04 11:42 | 21.59552 | 115.05483 | 19573 ft | 453 kts | 131° |
| 2026-05-04 11:42 | 21.57634 | 115.08180 | 19845 ft | 454 kts | 131° |
| 2026-05-04 11:43 | 21.55714 | 115.10882 | 20074 ft | 455 kts | 131° |
| 2026-05-04 11:43 | 21.53685 | 115.13481 | 20294 ft | 453 kts | 139° |
| 2026-05-04 11:43 | 21.51326 | 115.15694 | 20537 ft | 450 kts | 146° |
| 2026-05-04 11:43 | 21.48826 | 115.17718 | 20764 ft | 450 kts | 148° |
| 2026-05-04 11:44 | 21.46260 | 115.19652 | 20984 ft | 451 kts | 150° |
| 2026-05-04 11:44 | 21.43664 | 115.21539 | 21207 ft | 452 kts | 150° |
| 2026-05-04 11:44 | 21.41047 | 115.23418 | 21434 ft | 453 kts | 150° |
| 2026-05-04 11:44 | 21.38420 | 115.25306 | 21668 ft | 454 kts | 150° |
| 2026-05-04 11:45 | 21.35797 | 115.27201 | 21935 ft | 455 kts | 150° |
| 2026-05-04 11:45 | 21.33173 | 115.29108 | 22149 ft | 456 kts | 150° |
| 2026-05-04 11:45 | 21.30541 | 115.31027 | 22359 ft | 458 kts | 150° |
| 2026-05-04 11:45 | 21.27908 | 115.32950 | 22575 ft | 459 kts | 150° |
| 2026-05-04 11:46 | 21.25269 | 115.34880 | 22837 ft | 459 kts | 150° |
| 2026-05-04 11:46 | 21.22634 | 115.36812 | 23087 ft | 459 kts | 150° |
| 2026-05-04 11:46 | 21.19987 | 115.38748 | 23281 ft | 461 kts | 150° |
| 2026-05-04 11:46 | 21.17330 | 115.40686 | 23474 ft | 462 kts | 150° |
| 2026-05-04 11:47 | 21.14666 | 115.42628 | 23657 ft | 464 kts | 150° |
| 2026-05-04 11:47 | 21.11993 | 115.44575 | 23817 ft | 465 kts | 150° |
| 2026-05-04 11:47 | 21.09313 | 115.46528 | 23990 ft | 466 kts | 150° |
| 2026-05-04 11:47 | 21.06625 | 115.48486 | 24151 ft | 467 kts | 150° |
| 2026-05-04 11:48 | 21.03934 | 115.50445 | 24319 ft | 468 kts | 150° |
| 2026-05-04 11:48 | 21.01235 | 115.52411 | 24508 ft | 468 kts | 150° |
| 2026-05-04 11:48 | 20.98538 | 115.54374 | 24669 ft | 469 kts | 150° |
| 2026-05-04 11:48 | 20.95835 | 115.56340 | 24833 ft | 470 kts | 150° |
| 2026-05-04 11:49 | 20.93123 | 115.58311 | 24983 ft | 472 kts | 150° |
| 2026-05-04 11:49 | 20.90406 | 115.60286 | 25130 ft | 473 kts | 150° |
| 2026-05-04 11:49 | 20.87719 | 115.62237 | 25288 ft | 474 kts | 150° |
| 2026-05-04 11:49 | 20.84993 | 115.64216 | 25446 ft | 475 kts | 150° |
| 2026-05-04 11:50 | 20.82251 | 115.66206 | 25592 ft | 476 kts | 150° |
| 2026-05-04 11:50 | 20.79510 | 115.68195 | 25756 ft | 477 kts | 150° |
| 2026-05-04 11:50 | 20.76762 | 115.70191 | 25900 ft | 478 kts | 150° |
| 2026-05-04 11:50 | 20.74009 | 115.72192 | 26061 ft | 479 kts | 150° |
| 2026-05-04 11:51 | 20.71247 | 115.74192 | 26195 ft | 480 kts | 150° |
| 2026-05-04 11:51 | 20.68483 | 115.76191 | 26356 ft | 481 kts | 150° |
| 2026-05-04 11:51 | 20.66608 | 115.77546 | 26452 ft | 482 kts | 150° |
| 2026-05-04 11:51 | 20.63884 | 115.79515 | 26595 ft | 483 kts | 150° |
| 2026-05-04 11:52 | 20.61239 | 115.81427 | 26755 ft | 484 kts | 150° |
| 2026-05-04 11:52 | 20.58449 | 115.83443 | 26907 ft | 485 kts | 150° |
| 2026-05-04 11:52 | 20.55698 | 115.85431 | 27072 ft | 486 kts | 150° |
| 2026-05-04 11:52 | 20.52911 | 115.87444 | 27203 ft | 487 kts | 150° |
| 2026-05-04 11:53 | 20.50158 | 115.89431 | 27352 ft | 488 kts | 150° |
| 2026-05-04 11:53 | 20.47507 | 115.91345 | 27504 ft | 489 kts | 150° |
| 2026-05-04 11:53 | 20.44720 | 115.93355 | 27650 ft | 489 kts | 150° |
| 2026-05-04 11:53 | 20.41932 | 115.95366 | 27792 ft | 490 kts | 150° |
| 2026-05-04 11:55 | 20.20208 | 116.01253 | 28736 ft | 473 kts | 191° |
| 2026-05-04 11:55 | 20.16945 | 116.00796 | 28857 ft | 474 kts | 191° |
| 2026-05-04 11:56 | 20.13904 | 116.00348 | 28980 ft | 475 kts | 191° |
| 2026-05-04 11:56 | 20.10591 | 115.99857 | 29115 ft | 476 kts | 191° |
| 2026-05-04 11:56 | 20.07409 | 115.99395 | 29247 ft | 477 kts | 191° |
| 2026-05-04 11:56 | 20.04204 | 115.98940 | 29368 ft | 478 kts | 191° |
| 2026-05-04 11:57 | 20.00929 | 115.98483 | 29505 ft | 479 kts | 191° |
| 2026-05-04 11:57 | 19.97673 | 115.98033 | 29627 ft | 480 kts | 191° |
| 2026-05-04 11:57 | 19.94353 | 115.97578 | 29753 ft | 481 kts | 191° |
| 2026-05-04 11:57 | 19.91066 | 115.97128 | 29893 ft | 482 kts | 191° |
| 2026-05-04 11:58 | 19.87865 | 115.96690 | 30001 ft | 483 kts | 191° |
| 2026-05-04 11:58 | 19.84615 | 115.96245 | 30117 ft | 484 kts | 191° |
| 2026-05-04 11:58 | 19.81390 | 115.95804 | 30235 ft | 485 kts | 191° |
| 2026-05-04 11:59 | 19.74738 | 115.94892 | 30378 ft | 488 kts | 191° |
| 2026-05-04 11:59 | 19.67978 | 115.93966 | 30579 ft | 490 kts | 191° |
| 2026-05-04 11:59 | 19.64545 | 115.93496 | 30697 ft | 491 kts | 191° |
| 2026-05-04 12:00 | 19.61174 | 115.93036 | 30808 ft | 492 kts | 191° |
| 2026-05-04 12:00 | 19.57779 | 115.92572 | 30917 ft | 493 kts | 191° |
| 2026-05-04 12:00 | 19.54377 | 115.92107 | 31031 ft | 494 kts | 191° |
| 2026-05-04 12:00 | 19.50960 | 115.91640 | 31141 ft | 495 kts | 191° |
| 2026-05-04 12:01 | 19.47567 | 115.91177 | 31285 ft | 494 kts | 191° |
| 2026-05-04 12:01 | 19.44162 | 115.90713 | 31390 ft | 495 kts | 191° |
| 2026-05-04 12:02 | 19.23955 | 115.87968 | 33552 ft | 467 kts | 191° |
| 2026-05-04 12:03 | 19.20772 | 115.87539 | 34284 ft | 454 kts | 191° |
| 2026-05-04 12:03 | 19.17697 | 115.87125 | 35042 ft | 438 kts | 191° |
| 2026-05-04 12:03 | 19.14706 | 115.86721 | 35593 ft | 430 kts | 192° |
| 2026-05-04 12:03 | 19.11753 | 115.86318 | 35881 ft | 427 kts | 192° |
| 2026-05-04 12:04 | 19.08824 | 115.85917 | 36222 ft | 421 kts | 192° |
| 2026-05-04 12:04 | 19.05949 | 115.85526 | 36703 ft | 412 kts | 192° |
| 2026-05-04 12:04 | 19.03091 | 115.85268 | 36958 ft | 413 kts | 187° |
| 2026-05-04 12:04 | 19.00192 | 115.85349 | 36979 ft | 421 kts | 179° |
| 2026-05-04 12:05 | 18.94434 | 115.86805 | 36982 ft | 439 kts | 162° |
| 2026-05-04 12:05 | 18.88887 | 115.89624 | 36980 ft | 450 kts | 157° |
| 2026-05-04 12:06 | 18.83433 | 115.92669 | 36976 ft | 458 kts | 156° |
| 2026-05-04 12:06 | 18.77769 | 115.95830 | 36976 ft | 466 kts | 156° |
| 2026-05-04 12:07 | 18.71911 | 115.99052 | 36977 ft | 475 kts | 156° |
| 2026-05-04 12:07 | 18.66055 | 116.02252 | 36978 ft | 484 kts | 156° |
| 2026-05-04 12:08 | 18.60313 | 116.05384 | 36976 ft | 492 kts | 156° |
| 2026-05-04 12:08 | 18.54120 | 116.08761 | 36975 ft | 501 kts | 156° |
| 2026-05-04 12:09 | 18.47881 | 116.12163 | 36972 ft | 509 kts | 156° |
| 2026-05-04 12:09 | 18.41563 | 116.15606 | 36974 ft | 511 kts | 156° |
| 2026-05-04 12:10 | 18.35247 | 116.19047 | 36971 ft | 511 kts | 156° |
| 2026-05-04 12:10 | 18.28937 | 116.22480 | 36971 ft | 510 kts | 156° |
| 2026-05-04 12:11 | 18.22626 | 116.25909 | 36968 ft | 510 kts | 156° |
| 2026-05-04 12:11 | 18.16315 | 116.29336 | 36970 ft | 510 kts | 156° |
| 2026-05-04 12:12 | 18.10022 | 116.32750 | 36966 ft | 509 kts | 156° |
| 2026-05-04 12:12 | 18.03726 | 116.36162 | 36966 ft | 509 kts | 156° |
| 2026-05-04 12:14 | 17.78586 | 116.49762 | 36963 ft | 508 kts | 156° |
| 2026-05-04 12:15 | 17.72307 | 116.53159 | 36963 ft | 507 kts | 156° |
| 2026-05-04 12:15 | 17.66033 | 116.56539 | 36960 ft | 507 kts | 156° |
| 2026-05-04 12:16 | 17.59746 | 116.59923 | 36962 ft | 507 kts | 156° |
| 2026-05-04 12:16 | 17.53460 | 116.63307 | 36956 ft | 507 kts | 156° |
| 2026-05-04 12:17 | 17.47180 | 116.66687 | 36959 ft | 507 kts | 156° |
| 2026-05-04 12:17 | 17.40909 | 116.70059 | 36957 ft | 507 kts | 156° |
| 2026-05-04 12:18 | 17.34637 | 116.73428 | 36958 ft | 506 kts | 156° |
| 2026-05-04 12:18 | 17.28364 | 116.76796 | 36956 ft | 506 kts | 156° |
| 2026-05-04 12:19 | 17.22095 | 116.80159 | 36955 ft | 506 kts | 156° |
| 2026-05-04 12:19 | 17.15826 | 116.83519 | 36952 ft | 506 kts | 156° |
| 2026-05-04 12:20 | 17.09612 | 116.86847 | 36956 ft | 505 kts | 156° |
| 2026-05-04 12:20 | 17.03328 | 116.90211 | 36952 ft | 504 kts | 156° |
| 2026-05-04 12:21 | 16.97123 | 116.93529 | 36952 ft | 504 kts | 156° |
| 2026-05-04 12:21 | 16.90880 | 116.96865 | 36952 ft | 504 kts | 156° |
| 2026-05-04 12:22 | 16.84640 | 117.00197 | 36948 ft | 504 kts | 156° |
| 2026-05-04 12:22 | 16.78393 | 117.03530 | 36949 ft | 504 kts | 156° |
| 2026-05-04 12:23 | 16.72148 | 117.06860 | 36947 ft | 504 kts | 156° |
| 2026-05-04 12:23 | 16.65905 | 117.10187 | 36947 ft | 504 kts | 156° |
| 2026-05-04 12:24 | 16.59662 | 117.13511 | 36947 ft | 504 kts | 156° |
| 2026-05-04 12:24 | 16.53409 | 117.16838 | 36948 ft | 504 kts | 156° |
| 2026-05-04 12:25 | 16.47158 | 117.20161 | 36948 ft | 504 kts | 155° |
| 2026-05-04 12:25 | 16.41141 | 117.23366 | 36944 ft | 505 kts | 155° |
| 2026-05-04 12:26 | 16.34940 | 117.26654 | 36942 ft | 505 kts | 156° |
| 2026-05-04 12:26 | 16.28720 | 117.29949 | 36942 ft | 505 kts | 156° |
| 2026-05-04 12:27 | 16.22458 | 117.33267 | 36944 ft | 505 kts | 156° |
| 2026-05-04 12:27 | 16.16191 | 117.36586 | 36947 ft | 505 kts | 155° |
| 2026-05-04 12:28 | 16.09932 | 117.39900 | 36938 ft | 504 kts | 155° |
| 2026-05-04 12:28 | 16.03674 | 117.43211 | 36942 ft | 504 kts | 155° |
| 2026-05-04 12:29 | 15.97425 | 117.46513 | 36944 ft | 504 kts | 155° |
| 2026-05-04 12:29 | 15.91164 | 117.49820 | 36937 ft | 505 kts | 155° |
| 2026-05-04 12:30 | 15.84905 | 117.53124 | 36944 ft | 505 kts | 155° |
| 2026-05-04 12:30 | 15.78637 | 117.56430 | 36940 ft | 505 kts | 155° |
| 2026-05-04 12:31 | 15.72369 | 117.59734 | 36937 ft | 505 kts | 155° |
| 2026-05-04 12:31 | 15.66254 | 117.62955 | 36940 ft | 505 kts | 155° |
| 2026-05-04 12:32 | 15.57002 | 117.67824 | 36939 ft | 505 kts | 155° |
| 2026-05-04 12:33 | 15.50836 | 117.71066 | 36941 ft | 505 kts | 155° |
| 2026-05-04 12:33 | 15.45601 | 117.73817 | 36937 ft | 504 kts | 155° |
| 2026-05-04 12:34 | 15.39351 | 117.77100 | 36931 ft | 503 kts | 155° |
| 2026-05-04 12:34 | 15.33104 | 117.80378 | 36934 ft | 503 kts | 155° |
| 2026-05-04 12:35 | 15.26857 | 117.83655 | 36936 ft | 503 kts | 155° |
| 2026-05-04 12:35 | 15.20608 | 117.86929 | 36930 ft | 503 kts | 155° |
| 2026-05-04 12:36 | 15.14362 | 117.90201 | 36932 ft | 503 kts | 155° |
| 2026-05-04 12:36 | 15.08125 | 117.93466 | 36937 ft | 502 kts | 155° |
| 2026-05-04 12:37 | 15.01888 | 117.96728 | 36928 ft | 502 kts | 155° |
| 2026-05-04 12:37 | 14.95646 | 117.99991 | 36926 ft | 502 kts | 155° |
| 2026-05-04 12:38 | 14.89406 | 118.03251 | 36929 ft | 502 kts | 155° |
| 2026-05-04 12:38 | 14.83169 | 118.06507 | 36932 ft | 502 kts | 155° |
| 2026-05-04 12:39 | 14.76938 | 118.09758 | 36931 ft | 501 kts | 155° |
| 2026-05-04 12:39 | 14.70717 | 118.13001 | 36932 ft | 501 kts | 155° |
| 2026-05-04 12:40 | 14.64494 | 118.16244 | 36925 ft | 501 kts | 155° |
| 2026-05-04 12:40 | 14.58275 | 118.19482 | 36924 ft | 501 kts | 155° |
| 2026-05-04 12:41 | 14.52057 | 118.22717 | 36928 ft | 501 kts | 155° |
| 2026-05-04 12:41 | 14.45836 | 118.25953 | 36928 ft | 500 kts | 155° |
| 2026-05-04 12:42 | 14.39621 | 118.29183 | 36932 ft | 500 kts | 155° |
| 2026-05-04 12:42 | 14.33563 | 118.32330 | 36937 ft | 500 kts | 155° |
| 2026-05-04 12:43 | 14.27338 | 118.35566 | 37334 ft | 498 kts | 155° |
| 2026-05-04 12:43 | 14.24255 | 118.37166 | 37624 ft | 495 kts | 155° |
| 2026-05-04 12:43 | 14.21137 | 118.38782 | 37823 ft | 495 kts | 155° |
| 2026-05-04 12:43 | 14.18100 | 118.40355 | 37982 ft | 495 kts | 155° |
| 2026-05-04 12:44 | 14.15031 | 118.41945 | 38170 ft | 494 kts | 155° |
| 2026-05-04 12:44 | 14.11967 | 118.43532 | 38469 ft | 490 kts | 155° |
| 2026-05-04 12:44 | 14.08928 | 118.45106 | 38754 ft | 487 kts | 155° |
| 2026-05-04 12:44 | 14.05904 | 118.46673 | 38884 ft | 487 kts | 155° |
| 2026-05-04 12:45 | 14.02870 | 118.48243 | 38925 ft | 489 kts | 155° |
| 2026-05-04 12:45 | 13.96778 | 118.51394 | 38922 ft | 490 kts | 155° |
| 2026-05-04 12:46 | 13.90683 | 118.54547 | 38921 ft | 490 kts | 155° |
| 2026-05-04 12:46 | 13.84591 | 118.57696 | 38925 ft | 490 kts | 155° |
| 2026-05-04 12:47 | 13.78502 | 118.60841 | 38917 ft | 489 kts | 154° |
| 2026-05-04 12:47 | 13.72452 | 118.63965 | 38921 ft | 486 kts | 154° |
| 2026-05-04 12:48 | 13.66410 | 118.67083 | 38927 ft | 485 kts | 155° |
| 2026-05-04 12:48 | 13.60402 | 118.70181 | 38924 ft | 482 kts | 155° |
| 2026-05-04 12:49 | 13.54414 | 118.73274 | 38924 ft | 481 kts | 155° |
| 2026-05-04 12:49 | 13.48488 | 118.76323 | 38926 ft | 481 kts | 155° |
| 2026-05-04 12:50 | 13.42505 | 118.79399 | 38925 ft | 481 kts | 155° |
| 2026-05-04 12:50 | 13.36531 | 118.82471 | 38925 ft | 481 kts | 155° |
| 2026-05-04 12:51 | 13.30552 | 118.85545 | 38923 ft | 481 kts | 155° |
| 2026-05-04 12:51 | 13.24605 | 118.88601 | 38926 ft | 481 kts | 155° |
| 2026-05-04 12:52 | 13.18649 | 118.91660 | 38928 ft | 481 kts | 155° |
| 2026-05-04 12:52 | 13.12648 | 118.94740 | 38915 ft | 481 kts | 155° |
| 2026-05-04 12:53 | 13.06633 | 118.97826 | 38925 ft | 486 kts | 155° |
| 2026-05-04 12:53 | 13.00548 | 119.00948 | 38921 ft | 491 kts | 154° |
| 2026-05-04 12:54 | 12.94422 | 119.04092 | 38920 ft | 492 kts | 155° |
| 2026-05-04 12:54 | 12.88299 | 119.07225 | 38922 ft | 491 kts | 155° |
| 2026-05-04 12:55 | 12.82177 | 119.10356 | 38920 ft | 491 kts | 155° |
| 2026-05-04 12:55 | 12.76061 | 119.13485 | 38918 ft | 490 kts | 154° |
| 2026-05-04 12:56 | 12.69988 | 119.16591 | 38922 ft | 487 kts | 154° |
| 2026-05-04 12:56 | 12.63935 | 119.19685 | 38922 ft | 486 kts | 154° |
| 2026-05-04 12:57 | 12.57879 | 119.22779 | 38922 ft | 486 kts | 154° |
| 2026-05-04 12:57 | 12.51833 | 119.25865 | 38922 ft | 486 kts | 154° |
| 2026-05-04 12:58 | 12.45787 | 119.28951 | 38925 ft | 484 kts | 154° |
| 2026-05-04 12:58 | 12.39746 | 119.32031 | 38923 ft | 486 kts | 154° |
| 2026-05-04 12:59 | 12.33680 | 119.35123 | 38921 ft | 487 kts | 154° |
| 2026-05-04 12:59 | 12.27618 | 119.38212 | 38922 ft | 488 kts | 154° |
| 2026-05-04 13:00 | 12.21551 | 119.41302 | 38923 ft | 488 kts | 154° |
| 2026-05-04 13:00 | 12.15473 | 119.44395 | 38928 ft | 488 kts | 154° |
| 2026-05-04 13:01 | 12.09398 | 119.47486 | 38926 ft | 488 kts | 154° |
| 2026-05-04 13:01 | 12.03317 | 119.50577 | 38924 ft | 488 kts | 154° |
| 2026-05-04 13:02 | 11.97234 | 119.53669 | 38924 ft | 488 kts | 154° |
| 2026-05-04 13:02 | 11.91153 | 119.56758 | 38922 ft | 487 kts | 154° |
| 2026-05-04 13:03 | 11.85086 | 119.59838 | 38926 ft | 487 kts | 154° |
| 2026-05-04 13:03 | 11.79021 | 119.62915 | 38924 ft | 487 kts | 154° |
| 2026-05-04 13:04 | 11.72996 | 119.65971 | 38924 ft | 485 kts | 154° |
| 2026-05-04 13:04 | 11.66917 | 119.69057 | 38927 ft | 485 kts | 154° |
| 2026-05-04 13:05 | 11.60883 | 119.72126 | 38921 ft | 485 kts | 154° |
| 2026-05-04 13:05 | 11.54893 | 119.75171 | 38921 ft | 485 kts | 154° |
| 2026-05-04 13:06 | 11.49061 | 119.78135 | 38927 ft | 485 kts | 154° |
| 2026-05-04 13:06 | 11.43023 | 119.81201 | 38925 ft | 485 kts | 154° |
| 2026-05-04 13:07 | 11.36972 | 119.84273 | 38923 ft | 486 kts | 154° |
| 2026-05-04 13:07 | 11.30918 | 119.87344 | 38924 ft | 486 kts | 154° |
| 2026-05-04 13:08 | 11.24856 | 119.90418 | 38923 ft | 486 kts | 154° |
| 2026-05-04 13:08 | 11.18797 | 119.93489 | 38922 ft | 486 kts | 154° |
| 2026-05-04 13:09 | 11.12739 | 119.96559 | 38922 ft | 486 kts | 154° |
| 2026-05-04 13:09 | 11.06691 | 119.99621 | 38921 ft | 485 kts | 154° |
| 2026-05-04 13:10 | 11.00659 | 120.02680 | 38922 ft | 484 kts | 154° |
| 2026-05-04 13:10 | 10.94624 | 120.05730 | 38922 ft | 484 kts | 154° |
| 2026-05-04 13:11 | 10.88583 | 120.08773 | 38924 ft | 484 kts | 154° |
| 2026-05-04 13:11 | 10.82544 | 120.11817 | 38922 ft | 484 kts | 154° |
| 2026-05-04 13:12 | 10.76508 | 120.14860 | 38922 ft | 483 kts | 154° |
| 2026-05-04 13:12 | 10.70486 | 120.17897 | 38922 ft | 482 kts | 154° |
| 2026-05-04 13:13 | 10.64474 | 120.20926 | 38924 ft | 482 kts | 154° |
| 2026-05-04 13:13 | 10.58468 | 120.23951 | 38922 ft | 482 kts | 154° |
| 2026-05-04 13:14 | 10.53475 | 120.26465 | 38922 ft | 482 kts | 154° |
| 2026-05-04 13:14 | 10.47471 | 120.29487 | 38925 ft | 482 kts | 154° |
| 2026-05-04 13:15 | 10.41460 | 120.32511 | 38923 ft | 482 kts | 154° |
| 2026-05-04 13:15 | 10.35436 | 120.35539 | 38922 ft | 484 kts | 154° |
| 2026-05-04 13:16 | 10.29399 | 120.38574 | 38922 ft | 484 kts | 154° |
| 2026-05-04 13:16 | 10.23359 | 120.41610 | 38923 ft | 485 kts | 155° |
| 2026-05-04 13:17 | 10.17285 | 120.44654 | 38922 ft | 487 kts | 155° |
| 2026-05-04 13:17 | 10.11203 | 120.47694 | 38922 ft | 488 kts | 155° |
| 2026-05-04 13:18 | 10.05116 | 120.50736 | 38922 ft | 488 kts | 155° |
| 2026-05-04 13:18 | 9.99030 | 120.53778 | 38925 ft | 488 kts | 155° |
| 2026-05-04 13:19 | 9.92934 | 120.56825 | 38925 ft | 488 kts | 155° |
| 2026-05-04 13:19 | 9.86843 | 120.59867 | 38925 ft | 488 kts | 155° |
| 2026-05-04 13:20 | 9.80758 | 120.62906 | 38922 ft | 488 kts | 155° |
| 2026-05-04 13:20 | 9.74667 | 120.65946 | 38922 ft | 488 kts | 155° |
| 2026-05-04 13:21 | 9.68572 | 120.68990 | 38922 ft | 490 kts | 155° |
| 2026-05-04 13:21 | 9.62453 | 120.72038 | 38924 ft | 490 kts | 155° |
| 2026-05-04 13:22 | 9.56332 | 120.75086 | 38922 ft | 490 kts | 155° |
| 2026-05-04 13:22 | 9.50210 | 120.78135 | 38922 ft | 490 kts | 155° |
| 2026-05-04 13:23 | 9.44089 | 120.81183 | 38922 ft | 490 kts | 155° |
| 2026-05-04 13:23 | 9.38009 | 120.84209 | 38921 ft | 489 kts | 154° |
| 2026-05-04 13:24 | 9.31918 | 120.87240 | 38924 ft | 487 kts | 154° |
| 2026-05-04 13:24 | 9.25834 | 120.90265 | 38922 ft | 487 kts | 154° |
| 2026-05-04 13:25 | 9.16700 | 120.94806 | 38922 ft | 487 kts | 154° |
| 2026-05-04 13:25 | 9.10611 | 120.97831 | 38921 ft | 487 kts | 154° |
| 2026-05-04 13:26 | 9.04522 | 121.00855 | 38922 ft | 487 kts | 154° |
| 2026-05-04 13:26 | 8.98429 | 121.03880 | 38922 ft | 487 kts | 154° |
| 2026-05-04 13:27 | 8.92342 | 121.06901 | 38921 ft | 487 kts | 154° |
| 2026-05-04 13:27 | 8.86263 | 121.09917 | 38922 ft | 487 kts | 154° |
| 2026-05-04 13:28 | 8.80176 | 121.12935 | 38922 ft | 487 kts | 154° |
| 2026-05-04 13:28 | 8.74089 | 121.15952 | 38923 ft | 487 kts | 154° |
| 2026-05-04 13:29 | 8.68013 | 121.18964 | 38922 ft | 486 kts | 154° |
| 2026-05-04 13:29 | 8.61933 | 121.21975 | 38922 ft | 486 kts | 154° |
| 2026-05-04 13:30 | 8.55858 | 121.24984 | 38924 ft | 486 kts | 154° |
| 2026-05-04 13:30 | 8.49798 | 121.27984 | 38922 ft | 485 kts | 154° |
| 2026-05-04 13:31 | 8.43735 | 121.30984 | 38922 ft | 485 kts | 154° |
| 2026-05-04 13:31 | 8.37675 | 121.33982 | 38922 ft | 485 kts | 154° |
| 2026-05-04 13:32 | 8.31616 | 121.36978 | 38922 ft | 485 kts | 154° |
| 2026-05-04 13:32 | 8.25545 | 121.39979 | 38922 ft | 485 kts | 154° |
| 2026-05-04 13:33 | 8.19479 | 121.42976 | 38922 ft | 485 kts | 154° |
| 2026-05-04 13:33 | 8.13428 | 121.45966 | 38919 ft | 485 kts | 154° |
| 2026-05-04 13:34 | 8.07405 | 121.48940 | 38922 ft | 485 kts | 153° |
| 2026-05-04 13:34 | 8.01350 | 121.51929 | 38920 ft | 484 kts | 153° |
| 2026-05-04 13:35 | 7.92283 | 121.56404 | 38919 ft | 484 kts | 154° |
| 2026-05-04 13:36 | 7.86234 | 121.59387 | 38922 ft | 484 kts | 153° |
| 2026-05-04 13:36 | 7.80178 | 121.62373 | 38922 ft | 484 kts | 153° |
| 2026-05-04 13:37 | 7.74122 | 121.65358 | 38917 ft | 484 kts | 153° |
| 2026-05-04 13:37 | 7.68061 | 121.68345 | 38919 ft | 485 kts | 153° |
| 2026-05-04 13:38 | 7.61999 | 121.71331 | 38918 ft | 485 kts | 153° |
| 2026-05-04 13:38 | 7.55935 | 121.74317 | 38919 ft | 485 kts | 153° |
| 2026-05-04 13:39 | 7.49858 | 121.77309 | 38921 ft | 485 kts | 153° |
| 2026-05-04 13:39 | 7.43787 | 121.80297 | 38923 ft | 485 kts | 153° |
| 2026-05-04 13:40 | 7.37730 | 121.83277 | 38920 ft | 484 kts | 153° |
| 2026-05-04 13:40 | 7.31684 | 121.86251 | 38922 ft | 483 kts | 153° |
| 2026-05-04 13:41 | 7.25637 | 121.89228 | 38922 ft | 483 kts | 153° |
| 2026-05-04 13:41 | 7.19629 | 121.92185 | 38922 ft | 483 kts | 153° |
| 2026-05-04 13:42 | 7.10560 | 121.96646 | 38920 ft | 483 kts | 153° |
| 2026-05-04 13:42 | 7.04521 | 121.99617 | 38917 ft | 483 kts | 154° |
| 2026-05-04 13:43 | 6.98485 | 122.02584 | 38938 ft | 483 kts | 154° |
| 2026-05-04 13:43 | 6.92448 | 122.05552 | 38938 ft | 483 kts | 154° |
| 2026-05-04 13:44 | 6.86480 | 122.08774 | 38939 ft | 482 kts | 150° |
| 2026-05-04 13:44 | 6.80691 | 122.12187 | 38935 ft | 482 kts | 149° |
| 2026-05-04 13:45 | 6.74896 | 122.15577 | 38930 ft | 482 kts | 150° |
| 2026-05-04 13:45 | 6.69068 | 122.18929 | 38924 ft | 482 kts | 150° |
| 2026-05-04 13:46 | 6.63235 | 122.22260 | 38916 ft | 482 kts | 150° |
| 2026-05-04 13:46 | 6.57400 | 122.25590 | 38913 ft | 482 kts | 150° |
| 2026-05-04 13:47 | 6.51575 | 122.28922 | 38916 ft | 482 kts | 150° |
| 2026-05-04 13:47 | 6.45742 | 122.32249 | 38914 ft | 482 kts | 150° |
| 2026-05-04 13:48 | 6.39907 | 122.35575 | 38909 ft | 482 kts | 150° |
| 2026-05-04 13:48 | 6.34116 | 122.38879 | 38911 ft | 481 kts | 150° |
| 2026-05-04 13:49 | 6.28292 | 122.42200 | 38911 ft | 481 kts | 150° |
| 2026-05-04 13:49 | 6.22474 | 122.45518 | 38911 ft | 481 kts | 150° |
| 2026-05-04 13:50 | 6.16659 | 122.48834 | 38914 ft | 481 kts | 150° |
| 2026-05-04 13:50 | 6.10836 | 122.52153 | 38917 ft | 481 kts | 150° |
| 2026-05-04 13:51 | 6.05011 | 122.55472 | 38914 ft | 481 kts | 150° |
| 2026-05-04 13:51 | 5.99189 | 122.58789 | 38920 ft | 481 kts | 150° |
| 2026-05-04 13:52 | 5.90459 | 122.63761 | 38916 ft | 481 kts | 150° |
| 2026-05-04 13:53 | 5.84634 | 122.67077 | 38923 ft | 480 kts | 150° |
| 2026-05-04 13:53 | 5.78822 | 122.70386 | 38922 ft | 480 kts | 150° |
| 2026-05-04 13:54 | 5.71074 | 122.74795 | 38922 ft | 481 kts | 150° |
| 2026-05-04 13:55 | 5.62342 | 122.79762 | 38919 ft | 481 kts | 150° |
| 2026-05-04 13:55 | 5.53642 | 122.84709 | 38919 ft | 481 kts | 150° |
| 2026-05-04 13:56 | 5.47816 | 122.88021 | 38922 ft | 481 kts | 150° |
| 2026-05-04 13:57 | 5.39081 | 122.92986 | 38923 ft | 482 kts | 150° |
| 2026-05-04 13:58 | 5.27410 | 122.99616 | 38919 ft | 482 kts | 150° |
| 2026-05-04 13:58 | 5.18646 | 123.04593 | 38919 ft | 482 kts | 150° |
| 2026-05-04 13:59 | 5.12812 | 123.07906 | 38919 ft | 482 kts | 150° |
| 2026-05-04 14:00 | 5.04084 | 123.12860 | 38920 ft | 483 kts | 150° |
| 2026-05-04 14:00 | 4.95307 | 123.17840 | 38924 ft | 483 kts | 150° |
| 2026-05-04 14:01 | 4.89454 | 123.21160 | 38922 ft | 483 kts | 150° |
| 2026-05-04 14:02 | 4.80666 | 123.26144 | 38922 ft | 484 kts | 150° |
| 2026-05-04 14:02 | 4.74804 | 123.29468 | 38920 ft | 484 kts | 150° |
| 2026-05-04 14:03 | 4.68941 | 123.32791 | 38922 ft | 484 kts | 150° |
| 2026-05-04 14:03 | 4.63074 | 123.36116 | 38923 ft | 484 kts | 150° |
| 2026-05-04 14:04 | 4.54268 | 123.41107 | 38920 ft | 484 kts | 150° |
| 2026-05-04 14:04 | 4.48401 | 123.44430 | 38920 ft | 484 kts | 150° |
| 2026-05-04 14:05 | 4.39630 | 123.49398 | 38922 ft | 485 kts | 150° |
| 2026-05-04 14:06 | 4.33755 | 123.52724 | 38919 ft | 485 kts | 150° |
| 2026-05-04 14:06 | 4.27876 | 123.56052 | 38919 ft | 485 kts | 150° |
| 2026-05-04 14:07 | 4.21953 | 123.59405 | 38920 ft | 486 kts | 150° |
| 2026-05-04 14:07 | 4.16108 | 123.62713 | 38919 ft | 485 kts | 150° |
| 2026-05-04 14:08 | 4.10228 | 123.66040 | 38920 ft | 485 kts | 150° |
| 2026-05-04 14:08 | 4.04341 | 123.69371 | 38918 ft | 486 kts | 150° |
| 2026-05-04 14:09 | 3.95627 | 123.74358 | 38920 ft | 486 kts | 149° |
| 2026-05-04 14:10 | 3.86930 | 123.79587 | 38922 ft | 486 kts | 148° |
| 2026-05-04 14:10 | 3.81126 | 123.83068 | 38922 ft | 486 kts | 149° |
| 2026-05-04 14:11 | 3.75312 | 123.86535 | 38920 ft | 486 kts | 148° |
| 2026-05-04 14:11 | 3.66698 | 123.91662 | 38920 ft | 486 kts | 148° |
| 2026-05-04 14:12 | 3.61067 | 123.95013 | 38919 ft | 486 kts | 148° |
| 2026-05-04 14:13 | 3.52380 | 124.00183 | 38919 ft | 486 kts | 148° |
| 2026-05-04 14:13 | 3.46582 | 124.03633 | 38920 ft | 486 kts | 148° |
| 2026-05-04 14:14 | 3.40792 | 124.07079 | 38919 ft | 486 kts | 148° |
| 2026-05-04 14:14 | 3.32062 | 124.12272 | 38919 ft | 487 kts | 148° |
| 2026-05-04 14:15 | 3.20430 | 124.19190 | 38922 ft | 486 kts | 148° |
| 2026-05-04 14:16 | 3.11699 | 124.24381 | 38918 ft | 486 kts | 148° |
| 2026-05-04 14:17 | 3.03001 | 124.29552 | 38920 ft | 485 kts | 148° |
| 2026-05-04 14:18 | 2.94304 | 124.34721 | 38920 ft | 485 kts | 148° |
| 2026-05-04 14:19 | 2.82707 | 124.41613 | 38925 ft | 485 kts | 148° |
| 2026-05-04 14:19 | 2.76905 | 124.45060 | 38920 ft | 483 kts | 148° |
| 2026-05-04 14:20 | 2.71126 | 124.48493 | 38919 ft | 483 kts | 148° |
| 2026-05-04 14:20 | 2.65358 | 124.51919 | 38918 ft | 482 kts | 148° |
| 2026-05-04 14:21 | 2.56709 | 124.57056 | 38915 ft | 482 kts | 148° |
| 2026-05-04 14:21 | 2.50981 | 124.60458 | 38915 ft | 482 kts | 148° |
| 2026-05-04 14:22 | 2.45187 | 124.63898 | 38917 ft | 481 kts | 148° |
| 2026-05-04 14:22 | 2.39440 | 124.67311 | 38921 ft | 480 kts | 148° |
| 2026-05-04 14:23 | 2.30854 | 124.72407 | 38918 ft | 480 kts | 148° |
| 2026-05-04 14:24 | 2.25111 | 124.75816 | 38919 ft | 480 kts | 148° |
| 2026-05-04 14:24 | 2.19374 | 124.79222 | 38921 ft | 479 kts | 148° |
| 2026-05-04 14:25 | 2.13646 | 124.82621 | 38922 ft | 478 kts | 148° |
| 2026-05-04 14:25 | 2.05065 | 124.87714 | 38920 ft | 478 kts | 148° |
| 2026-05-04 14:26 | 1.99335 | 124.91095 | 38922 ft | 478 kts | 149° |
| 2026-05-04 14:26 | 1.93578 | 124.94444 | 38923 ft | 478 kts | 149° |
| 2026-05-04 14:27 | 1.87828 | 124.97790 | 38931 ft | 478 kts | 149° |
| 2026-05-04 14:27 | 1.82085 | 125.01140 | 38954 ft | 478 kts | 149° |
| 2026-05-04 14:28 | 1.76344 | 125.04493 | 38964 ft | 478 kts | 149° |
| 2026-05-04 14:28 | 1.70607 | 125.07844 | 38976 ft | 477 kts | 149° |
| 2026-05-04 14:29 | 1.59140 | 125.14540 | 38984 ft | 477 kts | 149° |
| 2026-05-04 14:30 | 1.53398 | 125.17892 | 38975 ft | 478 kts | 149° |
| 2026-05-04 14:31 | 1.44799 | 125.22912 | 38970 ft | 478 kts | 149° |
| 2026-05-04 14:32 | 1.33348 | 125.29596 | 38950 ft | 478 kts | 149° |
| 2026-05-04 14:32 | 1.27608 | 125.32947 | 38948 ft | 477 kts | 149° |
| 2026-05-04 14:33 | 1.21874 | 125.36294 | 38932 ft | 477 kts | 149° |
| 2026-05-04 14:33 | 1.16144 | 125.39638 | 38933 ft | 476 kts | 149° |
| 2026-05-04 14:34 | 1.10426 | 125.42975 | 38920 ft | 476 kts | 149° |
| 2026-05-04 14:34 | 1.04709 | 125.46311 | 38919 ft | 476 kts | 149° |
| 2026-05-04 14:35 | 0.98986 | 125.49651 | 38914 ft | 476 kts | 149° |
| 2026-05-04 14:35 | 0.93284 | 125.52978 | 38912 ft | 475 kts | 149° |
| 2026-05-04 14:36 | 0.87570 | 125.56312 | 38913 ft | 475 kts | 149° |
| 2026-05-04 14:36 | 0.81866 | 125.59640 | 38915 ft | 475 kts | 149° |
| 2026-05-04 14:37 | 0.76151 | 125.62975 | 38911 ft | 475 kts | 149° |
| 2026-05-04 14:37 | 0.71404 | 125.65744 | 38910 ft | 475 kts | 149° |
| 2026-05-04 14:38 | 0.65697 | 125.69074 | 38917 ft | 475 kts | 149° |
| 2026-05-04 14:38 | 0.59984 | 125.72407 | 38915 ft | 475 kts | 149° |
| 2026-05-04 14:39 | 0.54266 | 125.75743 | 38908 ft | 476 kts | 149° |
| 2026-05-04 14:39 | 0.48543 | 125.79081 | 38912 ft | 477 kts | 149° |
| 2026-05-04 14:40 | 0.39929 | 125.84107 | 38911 ft | 478 kts | 149° |
| 2026-05-04 14:40 | 0.34190 | 125.87454 | 38909 ft | 478 kts | 149° |
| 2026-05-04 14:41 | 0.28450 | 125.90803 | 38909 ft | 478 kts | 149° |
| 2026-05-04 14:42 | 0.16975 | 125.97497 | 38912 ft | 477 kts | 149° |
| 2026-05-04 14:42 | 0.11239 | 126.00843 | 38912 ft | 477 kts | 149° |
| 2026-05-04 14:43 | 0.05501 | 126.04190 | 38912 ft | 478 kts | 149° |
| 2026-05-04 14:43 | -0.00241 | 126.07540 | 38909 ft | 478 kts | 149° |
| 2026-05-04 14:44 | -0.05987 | 126.10892 | 38912 ft | 479 kts | 149° |
| 2026-05-04 14:44 | -0.11747 | 126.14251 | 38906 ft | 480 kts | 149° |
| 2026-05-04 14:45 | -0.17508 | 126.17612 | 38911 ft | 480 kts | 149° |
| 2026-05-04 14:45 | -0.23277 | 126.20978 | 38912 ft | 480 kts | 149° |
| 2026-05-04 14:46 | -0.29037 | 126.24338 | 38910 ft | 480 kts | 149° |
| 2026-05-04 14:46 | -0.34807 | 126.27704 | 38910 ft | 481 kts | 150° |
| 2026-05-04 14:47 | -0.40595 | 126.31080 | 38909 ft | 482 kts | 150° |
| 2026-05-04 14:47 | -0.46386 | 126.34458 | 38908 ft | 482 kts | 150° |
| 2026-05-04 14:48 | -0.52167 | 126.37831 | 38912 ft | 482 kts | 150° |
| 2026-05-04 14:48 | -0.57959 | 126.41210 | 38912 ft | 482 kts | 150° |
| 2026-05-04 14:49 | -0.63750 | 126.44588 | 38909 ft | 482 kts | 150° |
| 2026-05-04 14:49 | -0.69532 | 126.47962 | 38909 ft | 481 kts | 150° |
| 2026-05-04 14:50 | -0.75273 | 126.51312 | 38908 ft | 481 kts | 150° |
| 2026-05-04 14:50 | -0.81050 | 126.54682 | 38909 ft | 481 kts | 150° |
| 2026-05-04 14:51 | -0.86827 | 126.58053 | 38910 ft | 481 kts | 150° |
| 2026-05-04 14:51 | -0.92610 | 126.61427 | 38908 ft | 481 kts | 150° |
| 2026-05-04 14:52 | -0.98392 | 126.64801 | 38908 ft | 480 kts | 149° |
| 2026-05-04 14:52 | -1.04159 | 126.68167 | 38909 ft | 480 kts | 149° |
| 2026-05-04 14:53 | -1.09937 | 126.71538 | 38909 ft | 480 kts | 149° |
| 2026-05-04 14:53 | -1.15702 | 126.74903 | 38910 ft | 480 kts | 149° |
| 2026-05-04 14:54 | -1.21463 | 126.78265 | 38912 ft | 479 kts | 149° |
| 2026-05-04 14:54 | -1.27209 | 126.81619 | 38906 ft | 477 kts | 149° |
| 2026-05-04 14:55 | -1.32940 | 126.84964 | 38907 ft | 476 kts | 149° |
| 2026-05-04 14:55 | -1.38661 | 126.88303 | 38905 ft | 476 kts | 149° |
| 2026-05-04 14:56 | -1.44385 | 126.91645 | 38907 ft | 476 kts | 149° |
| 2026-05-04 14:56 | -1.50074 | 126.94966 | 38907 ft | 476 kts | 149° |
| 2026-05-04 14:57 | -1.55795 | 126.98306 | 38907 ft | 477 kts | 149° |
| 2026-05-04 14:57 | -1.61530 | 127.01654 | 38905 ft | 478 kts | 149° |
| 2026-05-04 14:58 | -1.67312 | 127.05031 | 38905 ft | 478 kts | 149° |
| 2026-05-04 14:58 | -1.73019 | 127.08363 | 38901 ft | 479 kts | 149° |
| 2026-05-04 14:59 | -1.78773 | 127.11723 | 38905 ft | 478 kts | 149° |
| 2026-05-04 15:00 | -1.87397 | 127.16760 | 38908 ft | 480 kts | 149° |
| 2026-05-04 15:00 | -1.93170 | 127.20132 | 38908 ft | 480 kts | 149° |
| 2026-05-04 15:01 | -2.01826 | 127.25188 | 38904 ft | 480 kts | 149° |
| 2026-05-04 15:01 | -2.07598 | 127.28560 | 38905 ft | 480 kts | 149° |
| 2026-05-04 15:02 | -2.13359 | 127.31926 | 38903 ft | 480 kts | 149° |
| 2026-05-04 15:02 | -2.19133 | 127.35300 | 38905 ft | 481 kts | 149° |
| 2026-05-04 15:03 | -2.24913 | 127.38678 | 38907 ft | 482 kts | 149° |
| 2026-05-04 15:03 | -2.30699 | 127.42059 | 38907 ft | 482 kts | 149° |
| 2026-05-04 15:04 | -2.36485 | 127.45441 | 38903 ft | 482 kts | 149° |
| 2026-05-04 15:04 | -2.42267 | 127.48820 | 38904 ft | 481 kts | 149° |
| 2026-05-04 15:05 | -2.48005 | 127.52175 | 38903 ft | 481 kts | 149° |
| 2026-05-04 15:05 | -2.53777 | 127.55549 | 38905 ft | 480 kts | 149° |
| 2026-05-04 15:06 | -2.59552 | 127.58926 | 38907 ft | 481 kts | 149° |
| 2026-05-04 15:07 | -2.68217 | 127.63993 | 38904 ft | 481 kts | 149° |
| 2026-05-04 15:07 | -2.73997 | 127.67374 | 38903 ft | 481 kts | 149° |
| 2026-05-04 15:08 | -2.79774 | 127.70753 | 38906 ft | 481 kts | 149° |
| 2026-05-04 15:08 | -2.85543 | 127.74128 | 38903 ft | 480 kts | 149° |
| 2026-05-04 15:09 | -2.91265 | 127.77475 | 38911 ft | 480 kts | 149° |
| 2026-05-04 15:09 | -2.97057 | 127.80865 | 38909 ft | 480 kts | 149° |
| 2026-05-04 15:10 | -3.05714 | 127.85931 | 38908 ft | 483 kts | 149° |
| 2026-05-04 15:11 | -3.14434 | 127.91035 | 38903 ft | 484 kts | 149° |
| 2026-05-04 15:11 | -3.20250 | 127.94440 | 38906 ft | 484 kts | 149° |
| 2026-05-04 15:12 | -3.26064 | 127.97844 | 38906 ft | 484 kts | 149° |
| 2026-05-04 15:12 | -3.31872 | 128.01246 | 38910 ft | 483 kts | 149° |
| 2026-05-04 15:13 | -3.37650 | 128.04630 | 38910 ft | 480 kts | 149° |
| 2026-05-04 15:13 | -3.43379 | 128.07986 | 38911 ft | 479 kts | 149° |
| 2026-05-04 15:14 | -3.49176 | 128.11382 | 38909 ft | 479 kts | 149° |
| 2026-05-04 15:14 | -3.54920 | 128.14747 | 38911 ft | 479 kts | 149° |
| 2026-05-04 15:15 | -3.60737 | 128.18015 | 38907 ft | 479 kts | 155° |
| 2026-05-04 15:15 | -3.67024 | 128.20266 | 38910 ft | 480 kts | 162° |
| 2026-05-04 15:16 | -3.76605 | 128.23133 | 38909 ft | 481 kts | 163° |
| 2026-05-04 15:17 | -3.86252 | 128.25970 | 38908 ft | 481 kts | 163° |
| 2026-05-04 15:17 | -3.95893 | 128.28836 | 38906 ft | 483 kts | 163° |
| 2026-05-04 15:18 | -4.02342 | 128.30756 | 38907 ft | 483 kts | 163° |
| 2026-05-04 15:19 | -4.12010 | 128.33636 | 38902 ft | 483 kts | 163° |
| 2026-05-04 15:19 | -4.21677 | 128.36515 | 38905 ft | 483 kts | 163° |
| 2026-05-04 15:20 | -4.27037 | 128.38111 | 38905 ft | 483 kts | 163° |
| 2026-05-04 15:20 | -4.33472 | 128.40028 | 38903 ft | 482 kts | 163° |
| 2026-05-04 15:21 | -4.39915 | 128.41948 | 38906 ft | 483 kts | 163° |
| 2026-05-04 15:22 | -4.49574 | 128.44827 | 38907 ft | 482 kts | 163° |
| 2026-05-04 15:22 | -4.59271 | 128.47718 | 38904 ft | 486 kts | 163° |
| 2026-05-04 15:23 | -4.65752 | 128.49650 | 38905 ft | 486 kts | 163° |
| 2026-05-04 15:23 | -4.72237 | 128.51584 | 38905 ft | 487 kts | 163° |
| 2026-05-04 15:24 | -4.85247 | 128.55466 | 38906 ft | 489 kts | 163° |
| 2026-05-04 15:25 | -4.91740 | 128.57403 | 38906 ft | 490 kts | 162° |
| 2026-05-04 15:26 | -5.01541 | 128.60329 | 38903 ft | 490 kts | 163° |
| 2026-05-04 15:26 | -5.11341 | 128.63255 | 38901 ft | 489 kts | 163° |
| 2026-05-04 15:27 | -5.21130 | 128.66179 | 38900 ft | 489 kts | 162° |
| 2026-05-04 15:28 | -5.30904 | 128.69099 | 38903 ft | 489 kts | 163° |
| 2026-05-04 15:29 | -5.40690 | 128.72024 | 38905 ft | 489 kts | 162° |
| 2026-05-04 15:30 | -5.63542 | 128.78858 | 38909 ft | 489 kts | 162° |
| 2026-05-04 15:31 | -5.73287 | 128.81774 | 38910 ft | 489 kts | 162° |
| 2026-05-04 15:32 | -5.89610 | 128.86661 | 38905 ft | 490 kts | 162° |
| 2026-05-04 15:34 | -6.06008 | 128.91573 | 38909 ft | 492 kts | 162° |
| 2026-05-04 15:34 | -6.15857 | 128.94525 | 38907 ft | 492 kts | 162° |
| 2026-05-04 15:35 | -6.25715 | 128.97481 | 38911 ft | 495 kts | 162° |
| 2026-05-04 15:36 | -6.35653 | 129.00462 | 38909 ft | 497 kts | 162° |
| 2026-05-04 15:36 | -6.42287 | 129.02452 | 38910 ft | 498 kts | 162° |
| 2026-05-04 15:37 | -6.48927 | 129.04445 | 38909 ft | 497 kts | 162° |
| 2026-05-04 15:37 | -6.55566 | 129.06438 | 38914 ft | 500 kts | 163° |
| 2026-05-04 15:38 | -6.62240 | 129.08442 | 38907 ft | 500 kts | 163° |
| 2026-05-04 15:38 | -6.68912 | 129.10446 | 38919 ft | 501 kts | 162° |
| 2026-05-04 15:39 | -6.75581 | 129.12450 | 38917 ft | 500 kts | 163° |
| 2026-05-04 15:40 | -6.85609 | 129.15464 | 38908 ft | 502 kts | 163° |
| 2026-05-04 15:40 | -6.92303 | 129.17477 | 38924 ft | 502 kts | 163° |
| 2026-05-04 15:41 | -6.99009 | 129.19494 | 38912 ft | 503 kts | 163° |
| 2026-05-04 15:41 | -7.05706 | 129.21509 | 38922 ft | 502 kts | 163° |
| 2026-05-04 15:42 | -7.12393 | 129.23522 | 38924 ft | 501 kts | 164° |
| 2026-05-04 15:42 | -7.19058 | 129.25528 | 38925 ft | 499 kts | 163° |
| 2026-05-04 15:43 | -7.25717 | 129.27533 | 38913 ft | 500 kts | 164° |
| 2026-05-04 15:43 | -7.32382 | 129.29541 | 38931 ft | 499 kts | 163° |
| 2026-05-04 15:44 | -7.39037 | 129.31547 | 38914 ft | 499 kts | 165° |
| 2026-05-04 15:44 | -7.45676 | 129.33548 | 38916 ft | 497 kts | 165° |
| 2026-05-04 15:45 | -7.52310 | 129.35548 | 38917 ft | 497 kts | 165° |
| 2026-05-04 15:45 | -7.58944 | 129.37549 | 38929 ft | 498 kts | 164° |
| 2026-05-04 15:46 | -7.65593 | 129.39555 | 38918 ft | 498 kts | 165° |
| 2026-05-04 15:46 | -7.72225 | 129.41557 | 38915 ft | 497 kts | 165° |
| 2026-05-04 15:47 | -7.78811 | 129.43545 | 38923 ft | 497 kts | 165° |
| 2026-05-04 15:47 | -7.85436 | 129.45546 | 38922 ft | 497 kts | 165° |
| 2026-05-04 15:48 | -7.92059 | 129.47547 | 38924 ft | 497 kts | 165° |
| 2026-05-04 15:48 | -8.02026 | 129.50559 | 38924 ft | 500 kts | 165° |
| 2026-05-04 15:49 | -8.08688 | 129.52573 | 38923 ft | 500 kts | 165° |
| 2026-05-04 15:49 | -8.15358 | 129.54591 | 38926 ft | 500 kts | 165° |
| 2026-05-04 15:50 | -8.22029 | 129.56609 | 38924 ft | 501 kts | 165° |
| 2026-05-04 15:50 | -8.28720 | 129.58634 | 38926 ft | 502 kts | 165° |
| 2026-05-04 15:51 | -8.35413 | 129.60661 | 38922 ft | 502 kts | 165° |
| 2026-05-04 15:51 | -8.42111 | 129.62690 | 38923 ft | 503 kts | 165° |
| 2026-05-04 15:52 | -8.48767 | 129.64707 | 38926 ft | 502 kts | 165° |
| 2026-05-04 15:52 | -8.55464 | 129.66738 | 38923 ft | 502 kts | 165° |
| 2026-05-04 15:53 | -8.62062 | 129.69086 | 38927 ft | 503 kts | 160° |
| 2026-05-04 15:53 | -8.68585 | 129.71658 | 38925 ft | 503 kts | 160° |
| 2026-05-04 15:54 | -8.75124 | 129.74201 | 38921 ft | 503 kts | 161° |
| 2026-05-04 15:54 | -8.81679 | 129.76695 | 38925 ft | 503 kts | 161° |
| 2026-05-04 15:55 | -8.88201 | 129.79156 | 38923 ft | 503 kts | 161° |
| 2026-05-04 15:55 | -8.94766 | 129.81632 | 38922 ft | 504 kts | 161° |
| 2026-05-04 15:56 | -9.01332 | 129.84113 | 38928 ft | 503 kts | 161° |
| 2026-05-04 15:56 | -9.07890 | 129.86593 | 38928 ft | 504 kts | 161° |
| 2026-05-04 15:57 | -9.14456 | 129.89077 | 38926 ft | 504 kts | 161° |
| 2026-05-04 15:57 | -9.21028 | 129.91564 | 38925 ft | 504 kts | 161° |
| 2026-05-04 15:58 | -9.27602 | 129.94053 | 38928 ft | 504 kts | 161° |
| 2026-05-04 15:58 | -9.34178 | 129.96544 | 38927 ft | 505 kts | 161° |
| 2026-05-04 15:59 | -9.40776 | 129.99044 | 38928 ft | 506 kts | 161° |
| 2026-05-04 15:59 | -9.47374 | 130.01545 | 38933 ft | 507 kts | 161° |
| 2026-05-04 16:00 | -9.53982 | 130.04051 | 38932 ft | 507 kts | 161° |
| 2026-05-04 16:00 | -9.60582 | 130.06555 | 38934 ft | 507 kts | 161° |
| 2026-05-04 16:01 | -9.67193 | 130.09064 | 38934 ft | 507 kts | 161° |
| 2026-05-04 16:01 | -9.72689 | 130.11151 | 38934 ft | 507 kts | 161° |
| 2026-05-04 16:02 | -9.79293 | 130.13659 | 38933 ft | 507 kts | 161° |
| 2026-05-04 16:03 | -9.89210 | 130.17428 | 38932 ft | 506 kts | 161° |
| 2026-05-04 16:03 | -9.95802 | 130.19935 | 38932 ft | 505 kts | 161° |
| 2026-05-04 16:04 | -10.02397 | 130.22444 | 38930 ft | 505 kts | 161° |
| 2026-05-04 16:04 | -10.12275 | 130.26203 | 38939 ft | 506 kts | 161° |
| 2026-05-04 16:05 | -10.18861 | 130.28711 | 38933 ft | 506 kts | 161° |
| 2026-05-04 16:06 | -10.28756 | 130.32481 | 38936 ft | 506 kts | 161° |
| 2026-05-04 16:07 | -10.41938 | 130.37508 | 38935 ft | 506 kts | 161° |
| 2026-05-04 16:08 | -10.55115 | 130.42538 | 38936 ft | 506 kts | 161° |
| 2026-05-04 16:09 | -10.71572 | 130.48826 | 38937 ft | 505 kts | 161° |
| 2026-05-04 16:10 | -10.84710 | 130.53850 | 38935 ft | 506 kts | 161° |
| 2026-05-04 16:11 | -10.97885 | 130.58895 | 38935 ft | 505 kts | 161° |
| 2026-05-04 16:12 | -11.17598 | 130.66450 | 38938 ft | 504 kts | 161° |
| 2026-05-04 16:13 | -11.30741 | 130.71494 | 38937 ft | 504 kts | 161° |
| 2026-05-04 16:14 | -11.43882 | 130.76541 | 38939 ft | 504 kts | 161° |
| 2026-05-04 16:16 | -11.60269 | 130.82843 | 38944 ft | 503 kts | 161° |
| 2026-05-04 16:17 | -11.76629 | 130.89143 | 38947 ft | 501 kts | 162° |
| 2026-05-04 16:18 | -11.89648 | 130.94161 | 38943 ft | 502 kts | 162° |
| 2026-05-04 16:19 | -12.05955 | 131.00455 | 38942 ft | 500 kts | 162° |
| 2026-05-04 16:20 | -12.22216 | 131.06739 | 38955 ft | 499 kts | 162° |
| 2026-05-04 16:22 | -12.38339 | 131.12978 | 38953 ft | 495 kts | 162° |
| 2026-05-04 16:23 | -12.57728 | 131.20492 | 38945 ft | 495 kts | 162° |